Time;durP1;ratioP1;P1;durP2;ratioP2;P2;SDS_P1;SDS_P2;PMS_P1;PMS_P2;Temp;Humidity;BMP_temperature;BMP_pressure;BME280_temperature;BME280_humidity;BME280_pressure;Samples;Min_cycle;Max_cycle;Signal;HPM_P1;HPM_P2
2021/04/27 00:01:32;;;;;;;13.27;5.80;;;8.40;86.60;;;;;;5032514;28;20029;-63
2021/04/27 00:03:57;;;;;;;12.35;5.85;;;8.40;86.70;;;;;;5032894;28;20030;-63
2021/04/27 00:06:23;;;;;;;11.25;5.55;;;8.30;87.10;;;;;;5033021;28;20491;-63
2021/04/27 00:08:49;;;;;;;9.30;6.07;;;8.30;87.20;;;;;;5031689;28;20029;-63
2021/04/27 00:11:15;;;;;;;11.77;6.40;;;8.30;87.70;;;;;;5032253;28;20033;-63
2021/04/27 00:13:41;;;;;;;13.00;6.15;;;8.30;88.00;;;;;;5032562;28;20076;-63
2021/04/27 00:16:08;;;;;;;9.85;5.65;;;8.30;88.40;;;;;;5032657;28;20019;-63
2021/04/27 00:18:34;;;;;;;11.02;5.78;;;8.30;88.30;;;;;;5032088;28;20053;-63
2021/04/27 00:20:59;;;;;;;10.82;5.85;;;8.30;88.50;;;;;;5032043;28;20501;-63
2021/04/27 00:23:26;;;;;;;11.40;5.30;;;8.30;88.60;;;;;;5031943;28;20482;-63
2021/04/27 00:25:52;;;;;;;14.80;5.65;;;8.20;88.40;;;;;;5030950;28;20068;-63
2021/04/27 00:28:18;;;;;;;9.00;5.57;;;8.20;88.90;;;;;;5032607;28;20037;-62
2021/04/27 00:30:43;;;;;;;8.85;5.82;;;8.20;89.10;;;;;;5034561;28;20025;-62
2021/04/27 00:33:09;;;;;;;8.48;5.80;;;8.20;89.20;;;;;;5035182;28;20044;-62
2021/04/27 00:35:35;;;;;;;8.95;6.07;;;8.20;89.00;;;;;;5034419;28;20332;-62
2021/04/27 00:38:02;;;;;;;8.68;5.43;;;8.20;88.90;;;;;;5035601;28;20021;-63
2021/04/27 00:40:27;;;;;;;6.75;4.85;;;8.20;88.60;;;;;;5035450;28;20087;-62
2021/04/27 00:42:54;;;;;;;11.70;5.47;;;8.30;88.20;;;;;;5034739;28;20026;-64
2021/04/27 00:45:22;;;;;;;13.52;5.70;;;8.30;87.80;;;;;;5035573;28;20100;-62
2021/04/27 00:47:48;;;;;;;15.23;6.00;;;8.30;87.40;;;;;;5035600;28;20025;-62
2021/04/27 00:50:18;;;;;;;15.98;6.18;;;8.20;87.50;;;;;;5034366;28;20036;-62
2021/04/27 00:52:45;;;;;;;10.05;5.57;;;8.20;87.70;;;;;;5033869;28;20025;-63
2021/04/27 00:55:13;;;;;;;11.82;5.57;;;8.20;87.50;;;;;;5034579;28;20025;-62
2021/04/27 00:57:39;;;;;;;8.55;5.05;;;8.20;87.70;;;;;;5035346;28;20065;-62
2021/04/27 01:00:10;;;;;;;9.65;5.50;;;8.20;87.90;;;;;;5035252;28;20056;-63
2021/04/27 01:02:38;;;;;;;12.00;6.10;;;8.10;87.70;;;;;;5035647;28;20111;-62
2021/04/27 01:05:09;;;;;;;13.13;5.40;;;8.10;88.10;;;;;;5035264;28;20018;-64
2021/04/27 01:07:40;;;;;;;10.10;5.22;;;8.00;87.90;;;;;;5029946;28;20103;-62
2021/04/27 01:10:10;;;;;;;10.80;5.30;;;8.00;88.30;;;;;;5015806;28;20041;-63
2021/04/27 01:12:47;;;;;;;15.90;5.88;;;8.00;88.50;;;;;;5013042;28;20022;-63
2021/04/27 01:15:18;;;;;;;6.72;5.32;;;8.00;88.30;;;;;;5015642;28;20021;-62
2021/04/27 01:17:45;;;;;;;12.90;5.63;;;8.00;88.30;;;;;;5014117;28;20101;-63
2021/04/27 01:20:23;;;;;;;8.90;5.80;;;8.00;88.20;;;;;;5014544;28;20034;-62
2021/04/27 01:23:11;;;;;;;12.80;5.18;;;8.00;87.90;;;;;;5015377;28;20029;-62
2021/04/27 01:26:00;;;;;;;11.10;5.35;;;8.00;87.60;;;;;;5012316;28;20034;-62
2021/04/27 01:28:27;;;;;;;11.95;5.57;;;7.90;87.60;;;;;;5015486;28;20056;-62
2021/04/27 01:30:53;;;;;;;12.82;5.28;;;7.90;87.80;;;;;;5013839;28;20022;-62
2021/04/27 01:33:22;;;;;;;9.48;5.28;;;7.90;87.90;;;;;;5014434;28;20371;-62
2021/04/27 01:35:49;;;;;;;11.52;5.63;;;7.90;87.80;;;;;;5013514;28;20018;-62
2021/04/27 01:38:19;;;;;;;9.27;5.68;;;7.90;87.60;;;;;;5014185;28;20030;-63
2021/04/27 01:40:44;;;;;;;17.63;5.55;;;7.90;88.40;;;;;;5013501;28;20029;-62
2021/04/27 01:43:11;;;;;;;13.20;5.20;;;7.90;87.60;;;;;;5014945;28;20438;-62
2021/04/27 01:45:37;;;;;;;9.65;5.40;;;7.90;87.50;;;;;;5013633;28;20026;-62
2021/04/27 01:48:04;;;;;;;12.52;5.60;;;7.90;87.50;;;;;;5014062;28;20032;-63
2021/04/27 01:50:30;;;;;;;10.18;5.07;;;7.80;87.60;;;;;;5014854;28;20030;-62
2021/04/27 01:52:56;;;;;;;10.80;5.40;;;7.80;87.80;;;;;;5013080;28;20073;-62
2021/04/27 01:55:23;;;;;;;12.13;5.90;;;7.80;87.80;;;;;;5014853;28;20022;-64
2021/04/27 01:57:49;;;;;;;10.32;5.25;;;7.80;87.60;;;;;;5014672;28;20038;-63
2021/04/27 02:00:19;;;;;;;9.73;5.25;;;7.80;87.80;;;;;;5014097;28;20501;-63
2021/04/27 02:02:46;;;;;;;9.50;5.45;;;7.80;87.80;;;;;;5014147;28;20113;-63
2021/04/27 02:05:12;;;;;;;12.40;5.28;;;7.80;87.80;;;;;;5013899;28;20030;-63
2021/04/27 02:07:38;;;;;;;8.85;5.53;;;7.80;87.70;;;;;;5014037;28;20367;-63
2021/04/27 02:10:10;;;;;;;11.05;5.43;;;7.80;88.00;;;;;;5012925;28;20024;-63
2021/04/27 02:13:04;;;;;;;10.00;5.18;;;7.80;88.20;;;;;;5014179;28;20107;-62
2021/04/27 02:15:30;;;;;;;9.88;5.55;;;7.70;88.40;;;;;;5013323;28;20026;-63
2021/04/27 02:18:12;;;;;;;14.15;5.38;;;7.70;88.40;;;;;;5012603;28;20024;-63
2021/04/27 02:20:39;;;;;;;10.73;5.75;;;7.70;88.40;;;;;;5013527;28;20484;-63
2021/04/27 02:23:05;;;;;;;8.20;5.32;;;7.70;88.30;;;;;;5014468;28;20030;-62
2021/04/27 02:25:31;;;;;;;10.25;4.97;;;7.70;88.40;;;;;;5014117;28;20033;-62
2021/04/27 02:27:57;;;;;;;10.15;5.25;;;7.70;88.60;;;;;;5013007;28;20026;-62
2021/04/27 02:30:24;;;;;;;9.45;5.00;;;7.60;88.70;;;;;;5013639;28;20037;-62
2021/04/27 02:32:51;;;;;;;12.57;4.93;;;7.60;89.00;;;;;;5012343;28;20018;-62
2021/04/27 02:35:19;;;;;;;12.52;5.20;;;7.60;89.10;;;;;;5014892;28;20026;-62
2021/04/27 02:37:46;;;;;;;14.55;5.95;;;7.60;89.30;;;;;;5013574;28;20030;-62
2021/04/27 02:40:19;;;;;;;10.40;5.63;;;7.60;89.30;;;;;;5012888;28;20026;-62
2021/04/27 02:42:52;;;;;;;11.95;5.38;;;7.50;89.40;;;;;;5012893;28;20030;-62
2021/04/27 02:45:18;;;;;;;10.93;5.38;;;7.50;89.80;;;;;;5012799;28;20083;-62
2021/04/27 02:47:44;;;;;;;9.80;5.22;;;7.50;90.00;;;;;;5014179;28;20113;-62
2021/04/27 02:50:12;;;;;;;10.60;5.95;;;7.50;90.00;;;;;;5013650;28;20034;-62
2021/04/27 02:52:39;;;;;;;9.68;4.78;;;7.50;90.20;;;;;;5013246;28;20082;-62
2021/04/27 02:55:06;;;;;;;11.02;5.82;;;7.40;90.20;;;;;;5013900;28;20014;-62
2021/04/27 02:57:31;;;;;;;11.30;5.15;;;7.40;90.30;;;;;;5013177;28;20029;-62
2021/04/27 02:59:57;;;;;;;11.02;5.70;;;7.40;90.20;;;;;;5013217;28;20030;-62
2021/04/27 03:02:23;;;;;;;11.18;5.13;;;7.40;90.30;;;;;;5011893;28;20113;-62
2021/04/27 03:04:48;;;;;;;13.10;5.43;;;7.50;90.40;;;;;;5013868;28;20113;-63
2021/04/27 03:07:14;;;;;;;9.60;5.60;;;7.40;90.30;;;;;;5013510;28;20085;-64
2021/04/27 03:09:39;;;;;;;13.25;5.15;;;7.40;90.40;;;;;;5011894;28;20538;-62
2021/04/27 03:12:05;;;;;;;12.75;5.57;;;7.30;90.40;;;;;;5013472;28;20041;-63
2021/04/27 03:14:31;;;;;;;11.13;5.38;;;7.30;90.50;;;;;;5012841;28;20025;-62
2021/04/27 03:16:57;;;;;;;10.13;5.57;;;7.30;90.60;;;;;;5013607;28;20036;-62
2021/04/27 03:19:22;;;;;;;14.00;5.10;;;7.30;91.10;;;;;;5012699;28;20025;-63
2021/04/27 03:21:48;;;;;;;13.68;6.00;;;7.30;90.70;;;;;;5011521;28;20022;-63
2021/04/27 03:24:13;;;;;;;11.23;5.68;;;7.30;90.80;;;;;;5012076;28;20038;-62
2021/04/27 03:26:39;;;;;;;7.70;5.55;;;7.30;90.80;;;;;;5013739;28;20030;-62
2021/04/27 03:29:05;;;;;;;10.73;5.85;;;7.20;90.90;;;;;;5013644;28;20549;-62
2021/04/27 03:31:32;;;;;;;22.85;6.25;;;7.20;90.90;;;;;;5012032;28;20048;-62
2021/04/27 03:33:58;;;;;;;16.33;6.03;;;7.30;90.90;;;;;;5013426;28;20414;-63
2021/04/27 03:36:24;;;;;;;10.27;5.70;;;7.30;90.80;;;;;;5012219;28;20518;-62
2021/04/27 03:38:50;;;;;;;10.98;5.28;;;7.10;91.10;;;;;;5013332;28;20049;-63
2021/04/27 03:41:15;;;;;;;11.95;5.70;;;7.10;91.30;;;;;;5012598;28;20026;-62
2021/04/27 03:43:41;;;;;;;14.95;6.38;;;7.10;91.40;;;;;;5013514;28;20037;-62
2021/04/27 03:46:06;;;;;;;15.55;5.82;;;7.00;91.60;;;;;;5013538;28;20108;-62
2021/04/27 03:48:32;;;;;;;13.32;5.35;;;7.00;91.80;;;;;;5013316;28;20026;-62
2021/04/27 03:51:01;;;;;;;9.90;5.50;;;6.90;91.90;;;;;;5012107;28;20037;-63
2021/04/27 03:53:27;;;;;;;10.07;5.68;;;6.90;92.10;;;;;;5011665;28;20054;-62
2021/04/27 03:55:53;;;;;;;11.73;5.55;;;6.90;92.00;;;;;;5012894;28;20022;-63
2021/04/27 03:58:19;;;;;;;12.52;6.53;;;6.90;92.00;;;;;;5012979;28;20052;-62
2021/04/27 04:00:44;;;;;;;12.07;6.05;;;7.00;91.90;;;;;;5012456;28;20100;-62
2021/04/27 04:03:10;;;;;;;20.80;6.43;;;6.90;92.00;;;;;;5014309;28;20030;-62
2021/04/27 04:05:35;;;;;;;12.52;5.97;;;6.90;92.30;;;;;;5016628;28;20375;-63
2021/04/27 04:08:01;;;;;;;14.32;5.90;;;6.80;92.40;;;;;;5016363;28;20072;-62
2021/04/27 04:10:27;;;;;;;11.90;6.00;;;6.80;92.70;;;;;;5016921;28;20026;-62
2021/04/27 04:12:54;;;;;;;9.35;6.22;;;6.70;92.70;;;;;;5016471;28;20029;-62
2021/04/27 04:15:20;;;;;;;14.00;5.88;;;6.70;93.00;;;;;;5016450;28;20463;-63
2021/04/27 04:17:46;;;;;;;10.85;6.13;;;6.70;93.00;;;;;;5016790;28;20052;-62
2021/04/27 04:20:18;;;;;;;13.82;5.57;;;6.70;93.10;;;;;;5015349;28;20449;-62
2021/04/27 04:22:44;;;;;;;11.05;5.80;;;6.60;93.30;;;;;;5016613;28;20041;-62
2021/04/27 04:25:12;;;;;;;11.98;6.35;;;6.60;93.40;;;;;;5016614;28;20038;-62
2021/04/27 04:27:38;;;;;;;11.55;5.82;;;6.60;93.40;;;;;;5016387;28;20029;-63
2021/04/27 04:30:13;;;;;;;14.27;6.93;;;6.70;93.50;;;;;;5016135;28;20030;-63
2021/04/27 04:32:40;;;;;;;9.98;6.13;;;6.70;93.30;;;;;;5016469;28;20109;-62
2021/04/27 04:35:06;;;;;;;15.15;6.45;;;6.80;93.10;;;;;;5016386;28;20022;-62
2021/04/27 04:37:32;;;;;;;20.90;6.50;;;6.70;93.20;;;;;;5016158;28;20505;-62
2021/04/27 04:39:58;;;;;;;12.05;6.30;;;6.70;93.30;;;;;;5014785;28;20038;-63
2021/04/27 04:42:23;;;;;;;9.60;6.78;;;6.80;93.10;;;;;;5013913;28;20028;-63
2021/04/27 04:44:49;;;;;;;15.30;7.43;;;7.10;92.20;;;;;;5016928;28;20068;-63
2021/04/27 04:47:14;;;;;;;18.98;7.20;;;7.00;92.40;;;;;;5014500;28;20026;-63
2021/04/27 04:49:40;;;;;;;14.80;7.60;;;6.90;92.40;;;;;;5016618;28;20092;-62
2021/04/27 04:52:06;;;;;;;13.35;7.35;;;6.90;92.60;;;;;;5013811;28;20030;-63
2021/04/27 04:54:31;;;;;;;16.95;8.10;;;6.80;92.90;;;;;;5015887;28;20022;-62
2021/04/27 04:56:57;;;;;;;12.35;6.40;;;6.80;93.10;;;;;;5014471;28;20084;-62
2021/04/27 04:59:23;;;;;;;11.57;6.70;;;6.80;93.30;;;;;;5015996;28;20126;-62
2021/04/27 05:01:48;;;;;;;26.95;7.53;;;6.70;93.50;;;;;;5013611;28;20033;-62
2021/04/27 05:04:14;;;;;;;15.07;6.45;;;6.60;93.80;;;;;;5015490;28;20071;-63
2021/04/27 05:06:42;;;;;;;12.52;7.70;;;6.70;93.80;;;;;;5015075;28;20022;-63
2021/04/27 05:09:10;;;;;;;17.55;7.20;;;6.70;93.70;;;;;;5016545;28;20026;-63
2021/04/27 05:11:36;;;;;;;20.33;9.32;;;6.70;93.80;;;;;;5015843;28;20487;-62
2021/04/27 05:14:02;;;;;;;16.73;8.00;;;6.70;94.00;;;;;;5015050;28;20061;-67
2021/04/27 05:16:28;;;;;;;28.65;8.30;;;6.80;93.80;;;;;;5016178;28;20053;-63
2021/04/27 05:18:54;;;;;;;22.23;7.68;;;6.90;93.70;;;;;;5015103;28;20018;-62
2021/04/27 05:21:20;;;;;;;12.68;7.05;;;7.00;93.30;;;;;;5015329;28;20120;-63
2021/04/27 05:23:46;;;;;;;10.23;6.15;;;7.10;93.30;;;;;;5014121;28;20030;-62
2021/04/27 05:26:12;;;;;;;21.10;6.68;;;7.20;93.00;;;;;;5014856;28;20084;-62
2021/04/27 05:28:38;;;;;;;11.50;6.82;;;7.30;92.60;;;;;;5013639;28;20041;-62
2021/04/27 05:31:05;;;;;;;13.95;6.68;;;7.40;92.10;;;;;;5013777;28;20033;-62
2021/04/27 05:33:30;;;;;;;13.00;6.60;;;7.50;92.00;;;;;;5015322;28;20022;-62
2021/04/27 05:35:56;;;;;;;15.15;6.13;;;7.50;92.00;;;;;;5013810;28;20084;-62
2021/04/27 05:38:22;;;;;;;17.23;7.18;;;7.50;92.10;;;;;;5014070;28;20021;-62
2021/04/27 05:40:47;;;;;;;9.73;6.70;;;7.60;92.10;;;;;;5014081;28;20037;-62
2021/04/27 05:43:14;;;;;;;13.02;6.85;;;7.90;91.40;;;;;;5013311;28;20032;-62
2021/04/27 05:45:39;;;;;;;12.20;7.25;;;7.80;91.30;;;;;;5014565;28;20105;-63
2021/04/27 05:48:05;;;;;;;18.90;7.38;;;7.90;91.20;;;;;;5014097;28;20427;-62
2021/04/27 05:50:31;;;;;;;11.70;6.85;;;7.80;91.30;;;;;;5028104;28;20386;-63
2021/04/27 05:52:57;;;;;;;15.77;7.50;;;8.00;90.80;;;;;;5013460;28;20022;-62
2021/04/27 05:55:22;;;;;;;18.73;7.38;;;8.00;90.40;;;;;;5018020;28;20529;-62
2021/04/27 05:57:48;;;;;;;12.82;7.30;;;8.00;90.90;;;;;;5025073;28;20053;-63
2021/04/27 06:00:15;;;;;;;15.43;7.55;;;8.10;90.30;;;;;;5021126;28;20376;-63
2021/04/27 06:02:41;;;;;;;14.15;7.25;;;8.10;90.00;;;;;;5032614;28;20060;-62
2021/04/27 06:05:08;;;;;;;16.70;8.50;;;8.10;90.10;;;;;;5012827;28;20038;-62
2021/04/27 06:07:33;;;;;;;17.63;8.48;;;8.10;89.80;;;;;;5031427;28;20021;-63
2021/04/27 06:09:59;;;;;;;22.63;7.63;;;8.10;90.20;;;;;;5029301;28;20113;-62
2021/04/27 06:12:25;;;;;;;15.68;7.25;;;8.20;90.40;;;;;;5031690;28;20040;-63
2021/04/27 06:14:51;;;;;;;15.57;6.95;;;8.20;90.30;;;;;;5010833;28;20216;-63
2021/04/27 06:17:22;;;;;;;18.35;7.57;;;8.40;90.00;;;;;;5022408;28;20026;-64
2021/04/27 06:19:48;;;;;;;19.40;7.93;;;8.60;88.60;;;;;;5016523;28;20060;-63
2021/04/27 06:22:14;;;;;;;15.50;8.00;;;8.80;88.00;;;;;;5019645;28;20045;-62
2021/04/27 06:24:39;;;;;;;13.77;7.47;;;9.00;87.30;;;;;;5001617;28;20126;-62
2021/04/27 06:27:05;;;;;;;13.00;7.88;;;9.10;86.10;;;;;;5020723;28;20018;-63
2021/04/27 06:29:31;;;;;;;21.83;9.38;;;9.10;85.50;;;;;;5016253;28;20113;-63
2021/04/27 06:31:56;;;;;;;17.00;8.27;;;9.10;86.30;;;;;;5013442;28;20037;-62
2021/04/27 06:34:22;;;;;;;20.42;7.88;;;9.20;86.10;;;;;;5008830;28;20033;-62
2021/04/27 06:36:47;;;;;;;15.60;8.25;;;9.30;85.00;;;;;;5016846;28;20059;-62
2021/04/27 06:39:13;;;;;;;17.00;8.15;;;9.30;84.20;;;;;;5018996;28;20079;-62
2021/04/27 06:41:39;;;;;;;14.07;8.18;;;9.10;85.00;;;;;;5028516;28;20421;-63
2021/04/27 06:44:04;;;;;;;12.35;8.30;;;9.10;85.80;;;;;;5007964;28;20041;-63
2021/04/27 06:46:31;;;;;;;13.93;7.45;;;9.10;85.50;;;;;;5011698;28;20041;-63
2021/04/27 06:48:56;;;;;;;16.92;8.40;;;9.20;84.50;;;;;;5018198;28;20037;-62
2021/04/27 06:51:22;;;;;;;17.23;8.68;;;9.20;84.60;;;;;;5014923;28;20088;-63
2021/04/27 06:53:50;;;;;;;15.95;8.20;;;9.20;84.40;;;;;;5008770;28;20034;-63
2021/04/27 06:56:16;;;;;;;13.50;8.65;;;9.20;84.70;;;;;;5006617;28;20113;-63
2021/04/27 06:58:42;;;;;;;15.23;7.30;;;9.20;84.10;;;;;;5015106;28;20046;-63
2021/04/27 07:01:08;;;;;;;21.75;8.77;;;9.30;84.40;;;;;;5012318;28;20103;-63
2021/04/27 07:03:34;;;;;;;13.75;7.72;;;9.70;83.20;;;;;;5010701;28;20041;-63
2021/04/27 07:06:00;;;;;;;10.57;7.82;;;9.70;83.30;;;;;;5009481;28;20056;-63
2021/04/27 07:08:26;;;;;;;14.20;7.93;;;9.70;83.10;;;;;;5022500;28;20084;-63
2021/04/27 07:10:53;;;;;;;13.75;7.13;;;10.20;82.20;;;;;;5011476;28;20029;-62
2021/04/27 07:13:22;;;;;;;15.45;7.28;;;11.60;77.20;;;;;;5013224;28;20511;-64
2021/04/27 07:15:47;;;;;;;18.67;8.30;;;13.10;71.70;;;;;;5007940;28;20022;-63
2021/04/27 07:18:16;;;;;;;15.63;7.55;;;14.20;65.20;;;;;;5019030;28;20513;-65
2021/04/27 07:20:43;;;;;;;17.27;7.40;;;14.80;62.00;;;;;;5018540;28;20037;-64
2021/04/27 07:23:09;;;;;;;12.77;7.53;;;15.90;59.10;;;;;;5012973;28;20038;-63
2021/04/27 07:25:36;;;;;;;9.07;7.38;;;16.50;57.20;;;;;;5002416;28;20052;-63
2021/04/27 07:28:04;;;;;;;16.02;7.72;;;17.20;55.40;;;;;;5015215;28;20566;-63
2021/04/27 07:30:31;;;;;;;11.25;7.28;;;17.10;54.20;;;;;;5011445;28;20025;-62
2021/04/27 07:32:57;;;;;;;11.43;7.47;;;17.10;54.60;;;;;;5012666;28;20030;-63
2021/04/27 07:35:23;;;;;;;13.15;7.85;;;18.10;51.60;;;;;;5005677;28;20037;-61
2021/04/27 07:37:49;;;;;;;12.32;7.10;;;17.80;51.30;;;;;;5011290;28;20033;-64
2021/04/27 07:40:15;;;;;;;11.10;6.72;;;17.70;51.80;;;;;;5011591;28;20030;-64
2021/04/27 07:42:42;;;;;;;14.40;7.00;;;17.70;52.20;;;;;;5010679;28;20034;-64
2021/04/27 07:45:09;;;;;;;14.23;7.40;;;17.80;52.50;;;;;;5001418;28;20025;-63
2021/04/27 07:47:35;;;;;;;13.63;7.13;;;17.80;52.50;;;;;;5013545;28;20029;-63
2021/04/27 07:50:02;;;;;;;11.00;7.20;;;18.00;51.60;;;;;;5015944;28;20034;-63
2021/04/27 07:52:28;;;;;;;11.52;7.20;;;18.80;49.20;;;;;;5015826;28;20054;-63
2021/04/27 07:54:54;;;;;;;12.55;7.28;;;19.00;48.90;;;;;;5004568;28;20175;-63
2021/04/27 07:57:19;;;;;;;11.43;7.00;;;18.00;51.00;;;;;;5012572;28;20048;-64
2021/04/27 07:59:46;;;;;;;13.00;6.88;;;17.20;53.00;;;;;;5019369;28;20192;-63
2021/04/27 08:02:11;;;;;;;12.48;6.68;;;16.80;53.90;;;;;;5020435;28;20046;-62
2021/04/27 08:04:37;;;;;;;12.50;6.57;;;16.20;55.20;;;;;;5009296;28;20037;-63
2021/04/27 08:07:02;;;;;;;12.65;7.30;;;15.70;56.90;;;;;;5016721;28;20048;-63
2021/04/27 08:09:28;;;;;;;17.45;7.30;;;15.20;58.00;;;;;;5012962;28;20514;-63
2021/04/27 08:11:54;;;;;;;14.18;8.30;;;15.00;58.50;;;;;;5007671;28;20040;-63
2021/04/27 08:14:21;;;;;;;17.15;7.28;;;15.50;57.00;;;;;;5014440;28;20045;-62
2021/04/27 08:16:47;;;;;;;12.88;7.20;;;15.80;55.90;;;;;;5008409;28;20032;-63
2021/04/27 08:19:13;;;;;;;24.95;8.40;;;15.90;55.60;;;;;;5011897;28;20022;-62
2021/04/27 08:21:40;;;;;;;32.72;9.25;;;15.10;57.30;;;;;;5013935;28;20040;-63
2021/04/27 08:24:06;;;;;;;20.85;8.25;;;14.80;58.00;;;;;;5014440;28;20033;-62
2021/04/27 08:26:32;;;;;;;32.65;8.95;;;14.90;57.40;;;;;;5004746;28;20053;-63
2021/04/27 08:28:58;;;;;;;26.02;7.88;;;14.90;57.10;;;;;;5012129;28;20034;-63
2021/04/27 08:31:23;;;;;;;18.15;8.20;;;15.30;56.50;;;;;;5008444;28;20120;-62
2021/04/27 08:33:49;;;;;;;14.75;7.60;;;15.00;56.50;;;;;;5013647;28;20057;-62
2021/04/27 08:36:15;;;;;;;17.45;8.57;;;14.80;57.20;;;;;;5003714;28;20026;-62
2021/04/27 08:38:41;;;;;;;12.63;7.93;;;15.20;56.70;;;;;;5005000;28;20033;-60
2021/04/27 08:41:07;;;;;;;14.90;8.50;;;15.20;55.60;;;;;;5010842;28;20052;-59
2021/04/27 08:43:34;;;;;;;13.20;7.85;;;15.10;57.40;;;;;;5012110;28;20025;-60
2021/04/27 08:45:59;;;;;;;13.02;8.15;;;15.20;56.80;;;;;;5007565;28;20029;-60
2021/04/27 08:48:26;;;;;;;12.90;8.52;;;15.20;56.10;;;;;;5004090;28;20034;-60
2021/04/27 08:50:52;;;;;;;16.67;8.23;;;15.10;57.20;;;;;;5017162;28;20025;-60
2021/04/27 08:53:21;;;;;;;18.13;8.00;;;15.90;55.30;;;;;;5023513;28;20025;-61
2021/04/27 08:55:48;;;;;;;13.50;7.55;;;16.30;54.30;;;;;;5011026;28;20120;-60
2021/04/27 08:58:15;;;;;;;14.18;8.48;;;16.80;53.00;;;;;;5006431;28;20111;-61
2021/04/27 09:00:42;;;;;;;17.02;8.55;;;17.20;53.40;;;;;;5016318;28;20033;-60
2021/04/27 09:03:09;;;;;;;16.98;8.52;;;17.50;50.70;;;;;;5018853;28;20021;-61
2021/04/27 09:05:38;;;;;;;14.90;8.40;;;17.80;49.90;;;;;;5012530;28;20029;-60
2021/04/27 09:08:04;;;;;;;12.85;7.70;;;18.80;48.30;;;;;;5010456;28;20426;-61
2021/04/27 09:10:33;;;;;;;11.20;8.27;;;19.50;46.30;;;;;;5015579;28;20026;-61
2021/04/27 09:13:03;;;;;;;13.07;7.45;;;20.20;46.00;;;;;;5017398;28;20544;-62
2021/04/27 09:15:41;;;;;;;18.80;8.07;;;21.00;43.90;;;;;;5020782;28;20034;-62
2021/04/27 09:18:31;;;;;;;15.32;8.07;;;20.90;42.50;;;;;;5007879;28;20033;-62
2021/04/27 09:21:07;;;;;;;17.25;8.25;;;20.40;43.20;;;;;;5019239;28;20049;-62
2021/04/27 09:23:35;;;;;;;15.43;7.80;;;20.50;42.80;;;;;;5018308;28;20034;-62
2021/04/27 09:26:14;;;;;;;11.27;8.15;;;21.40;42.80;;;;;;5014608;28;20065;-62
2021/04/27 09:28:42;;;;;;;13.55;8.23;;;21.10;42.70;;;;;;5008046;28;20045;-62
2021/04/27 09:31:35;;;;;;;13.45;8.23;;;20.50;42.70;;;;;;5013170;28;20034;-62
2021/04/27 09:34:28;;;;;;;10.93;6.97;;;20.60;43.20;;;;;;5022776;28;20068;-62
2021/04/27 09:36:59;;;;;;;26.67;8.18;;;21.60;39.80;;;;;;5005130;28;20033;-62
2021/04/27 09:39:33;;;;;;;14.05;7.30;;;21.70;39.40;;;;;;5012950;28;20504;-62
2021/04/27 09:42:04;;;;;;;12.13;7.30;;;22.20;39.10;;;;;;5012522;28;20041;-61
2021/04/27 09:44:51;;;;;;;14.75;8.18;;;22.00;39.40;;;;;;5016268;28;20037;-62
2021/04/27 09:47:30;;;;;;;13.25;7.88;;;21.40;40.10;;;;;;5002436;28;20052;-61
2021/04/27 09:49:58;;;;;;;14.90;8.05;;;20.50;40.50;;;;;;5014858;28;20033;-61
2021/04/27 09:52:25;;;;;;;14.80;7.75;;;20.40;40.00;;;;;;5014792;28;20055;-61
2021/04/27 09:55:12;;;;;;;13.48;7.47;;;19.80;42.60;;;;;;5015823;28;20057;-61
2021/04/27 09:57:49;;;;;;;10.38;7.75;;;20.20;42.60;;;;;;4996725;28;20057;-61
2021/04/27 10:00:22;;;;;;;16.08;7.10;;;20.40;41.90;;;;;;5012391;28;20034;-62
2021/04/27 10:02:47;;;;;;;;;;;20.40;40.90;;;;;;5017855;28;20107;-61
2021/04/27 10:05:13;;;;;;;13.15;7.85;;;19.70;42.40;;;;;;5016071;28;19949;-61
2021/04/27 10:07:39;;;;;;;13.45;8.45;;;20.00;42.80;;;;;;5005812;28;20463;-61
2021/04/27 10:10:07;;;;;;;14.52;8.02;;;20.40;41.00;;;;;;5020634;28;20103;-62
2021/04/27 10:12:34;;;;;;;12.05;7.70;;;19.90;41.80;;;;;;5019084;28;20129;-61
2021/04/27 10:15:00;;;;;;;13.63;7.68;;;20.40;41.50;;;;;;5017372;28;20502;-62
2021/04/27 10:17:27;;;;;;;14.15;8.48;;;20.80;40.20;;;;;;5013163;28;20061;-61
2021/04/27 10:19:53;;;;;;;15.68;8.07;;;21.40;41.00;;;;;;5019928;28;20397;-61
2021/04/27 10:22:19;;;;;;;13.10;8.10;;;22.00;38.90;;;;;;5018495;28;20494;-61
2021/04/27 10:24:45;;;;;;;23.08;8.00;;;22.20;39.10;;;;;;5016138;28;20025;-60
2021/04/27 10:27:11;;;;;;;24.40;8.70;;;22.50;37.50;;;;;;5005111;28;20037;-62
2021/04/27 10:29:37;;;;;;;23.85;8.43;;;22.30;37.80;;;;;;5018281;28;20081;-63
2021/04/27 10:32:20;;;;;;;12.27;8.00;;;22.30;38.90;;;;;;5016993;28;20057;-62
2021/04/27 10:35:06;;;;;;;21.88;8.00;;;22.10;38.20;;;;;;5016972;28;20390;-62
2021/04/27 10:37:57;;;;;;;23.75;8.52;;;21.70;38.90;;;;;;4998884;28;20555;-62
2021/04/27 10:40:47;;;;;;;20.63;8.68;;;21.60;39.90;;;;;;5007814;28;20332;-62
2021/04/27 10:43:40;;;;;;;29.77;9.05;;;21.80;38.80;;;;;;5013536;28;20029;-62
2021/04/27 10:46:30;;;;;;;17.65;8.57;;;21.90;38.40;;;;;;5012368;28;20073;-62
2021/04/27 10:49:07;;;;;;;18.83;8.30;;;22.40;38.10;;;;;;5012872;28;20068;-63
2021/04/27 10:51:37;;;;;;;10.13;8.20;;;23.10;36.80;;;;;;5012186;28;20075;-62
2021/04/27 10:54:18;;;;;;;9.27;7.97;;;23.50;35.00;;;;;;5012507;28;20594;-62
2021/04/27 10:56:44;;;;;;;19.88;8.80;;;23.50;31.60;;;;;;5002891;28;20094;-62
2021/04/27 10:59:12;;;;;;;13.65;9.23;;;23.60;34.80;;;;;;5010763;28;20135;-62
2021/04/27 11:01:41;;;;;;;25.40;8.90;;;24.00;33.70;;;;;;5017055;28;20037;-61
2021/04/27 11:04:27;;;;;;;14.95;9.30;;;24.50;33.20;;;;;;5015667;28;20022;-62
2021/04/27 11:07:11;;;;;;;15.93;8.93;;;24.30;33.20;;;;;;5017629;28;20045;-62
2021/04/27 11:09:38;;;;;;;15.98;8.75;;;24.10;31.50;;;;;;5015247;28;20632;-62
2021/04/27 11:12:29;;;;;;;13.50;8.43;;;24.10;32.70;;;;;;5012874;28;20065;-62
2021/04/27 11:15:21;;;;;;;12.95;8.70;;;24.00;32.60;;;;;;5015012;28;20048;-63
2021/04/27 11:18:19;;;;;;;13.02;8.93;;;24.20;31.40;;;;;;5001710;28;20061;-63
2021/04/27 11:20:48;;;;;;;9.50;8.23;;;23.30;32.10;;;;;;5033525;28;20143;-63
2021/04/27 11:23:38;;;;;;;11.35;8.40;;;23.20;31.60;;;;;;5012798;28;20847;-62
2021/04/27 11:26:25;;;;;;;11.73;9.20;;;22.70;31.90;;;;;;5009971;28;20041;-63
2021/04/27 11:28:58;;;;;;;11.48;7.80;;;22.60;31.50;;;;;;5014352;28;20128;-64
2021/04/27 11:31:23;;;;;;;;;;;22.40;32.80;;;;;;5020698;28;20076;-63
2021/04/27 11:34:00;;;;;;;11.20;8.15;;;22.80;30.80;;;;;;5016528;28;19910;-63
2021/04/27 11:36:37;;;;;;;9.35;8.00;;;22.60;30.10;;;;;;5004319;28;20024;-62
2021/04/27 11:39:14;;;;;;;11.43;8.40;;;22.50;32.20;;;;;;5016485;28;20533;-63
2021/04/27 11:41:50;;;;;;;10.55;8.98;;;23.30;32.80;;;;;;5010905;28;20083;-63
2021/04/27 11:44:18;;;;;;;11.05;8.50;;;23.10;32.80;;;;;;5015870;28;20489;-63
2021/04/27 11:46:57;;;;;;;11.27;8.68;;;23.40;31.10;;;;;;5006497;28;20033;-63
2021/04/27 11:50:03;;;;;;;9.57;8.27;;;23.60;30.30;;;;;;5012606;28;20026;-63
2021/04/27 11:52:50;;;;;;;12.10;8.43;;;23.90;29.70;;;;;;5035968;28;20099;-63
2021/04/27 11:55:29;;;;;;;13.35;8.43;;;25.50;29.10;;;;;;5016059;28;20017;-63
2021/04/27 11:57:56;;;;;;;9.48;7.75;;;25.90;28.10;;;;;;4999956;28;20038;-63
2021/04/27 12:00:32;;;;;;;12.18;8.57;;;26.10;28.20;;;;;;5014429;28;20034;-63
2021/04/27 12:02:58;;;;;;;12.38;8.20;;;25.90;27.50;;;;;;5013111;28;20029;-63
2021/04/27 12:05:24;;;;;;;18.80;9.18;;;25.70;28.00;;;;;;5014557;28;20505;-62
2021/04/27 12:07:50;;;;;;;14.60;8.90;;;26.30;27.00;;;;;;4999269;28;20033;-63
2021/04/27 12:10:16;;;;;;;19.75;9.23;;;26.40;27.50;;;;;;5012056;28;20034;-62
2021/04/27 12:12:47;;;;;;;15.88;8.75;;;25.50;28.30;;;;;;5011235;28;20033;-62
2021/04/27 12:15:12;;;;;;;9.00;7.60;;;26.40;28.00;;;;;;5017360;28;20018;-62
2021/04/27 12:17:38;;;;;;;11.48;7.78;;;25.10;28.00;;;;;;5005387;28;20095;-62
2021/04/27 12:20:18;;;;;;;10.13;7.90;;;23.40;29.10;;;;;;5020800;28;20033;-62
2021/04/27 12:22:51;;;;;;;9.77;7.90;;;22.50;29.30;;;;;;5012877;28;20801;-62
2021/04/27 12:25:19;;;;;;;11.45;7.97;;;22.40;28.40;;;;;;5014831;28;20072;-62
2021/04/27 12:27:46;;;;;;;13.65;8.38;;;22.70;28.40;;;;;;5010929;28;20740;-61
2021/04/27 12:30:18;;;;;;;10.63;8.30;;;23.60;29.20;;;;;;5033940;28;20048;-61
2021/04/27 12:32:48;;;;;;;11.15;9.15;;;23.70;27.90;;;;;;5026671;28;20117;-62
2021/04/27 12:35:22;;;;;;;14.23;9.07;;;24.00;28.70;;;;;;5018025;28;20045;-62
2021/04/27 12:38:12;;;;;;;16.77;9.75;;;24.50;28.90;;;;;;5009826;28;20025;-63
2021/04/27 12:40:43;;;;;;;14.57;9.25;;;25.40;27.60;;;;;;5021886;28;20683;-63
2021/04/27 12:43:14;;;;;;;15.15;9.13;;;24.00;29.50;;;;;;5020669;28;20029;-62
2021/04/27 12:45:46;;;;;;;12.05;9.80;;;23.50;29.90;;;;;;5015456;28;20041;-62
2021/04/27 12:48:13;;;;;;;14.50;9.95;;;23.10;29.90;;;;;;5014162;28;20021;-63
2021/04/27 12:51:00;;;;;;;10.32;8.98;;;23.20;29.90;;;;;;5018760;28;20033;-63
2021/04/27 12:53:37;;;;;;;12.57;9.43;;;24.00;30.10;;;;;;5019308;28;20427;-62